Time;durP1;ratioP1;P1;durP2;ratioP2;P2;SDS_P1;SDS_P2;PMS_P1;PMS_P2;Temp;Humidity;BMP_temperature;BMP_pressure;BME280_temperature;BME280_humidity;BME280_pressure;Samples;Min_cycle;Max_cycle;Signal;HPM_P1;HPM_P2
2022/09/17 00:01:34;;;;;;;6.50;3.50;;;;;;;9.54;77.67;97544.56;432663;1270;108805;-40
2022/09/17 00:11:44;;;;;;;4.30;3.40;;;;;;;9.45;77.68;97543.71;432799;1271;99341;-40
2022/09/17 00:21:51;;;;;;;4.40;3.50;;;;;;;9.46;78.00;97543.80;432486;1271;111366;-40
2022/09/17 00:31:58;;;;;;;8.80;5.00;;;;;;;9.52;78.00;97543.33;433060;1270;108794;-40
2022/09/17 00:42:09;;;;;;;5.60;4.30;;;;;;;9.33;77.94;97548.45;432689;1270;98811;-42
2022/09/17 00:52:17;;;;;;;5.30;4.20;;;;;;;9.14;78.26;97544.70;433283;1270;112608;-41
2022/09/17 01:02:24;;;;;;;6.30;3.90;;;;;;;8.92;78.27;97539.70;432642;1269;109153;-41
2022/09/17 01:12:46;;;;;;;5.00;3.60;;;;;;;8.99;78.53;97529.02;432800;1270;98608;-42
2022/09/17 01:22:57;;;;;;;3.50;3.20;;;;;;;9.04;78.69;97523.66;432607;1270;109745;-42
2022/09/17 01:33:11;;;;;;;4.40;3.40;;;;;;;9.00;78.72;97520.19;433745;1260;98943;-40
2022/09/17 01:43:16;;;;;;;4.90;4.00;;;;;;;9.09;79.04;97515.17;433433;1269;112307;-40
2022/09/17 01:53:25;;;;;;;7.00;4.10;;;;;;;9.30;79.10;97511.38;432889;1270;108748;-40
2022/09/17 02:03:35;;;;;;;8.10;5.30;;;;;;;9.31;78.99;97510.71;433511;1270;99237;-40
2022/09/17 02:13:40;;;;;;;7.10;5.70;;;;;;;9.26;79.18;97496.90;432641;1270;109001;-41
2022/09/17 02:23:48;;;;;;;8.50;4.60;;;;;;;9.27;79.14;97498.23;433241;1269;98869;-41
2022/09/17 02:34:01;;;;;;;7.80;4.60;;;;;;;9.36;79.18;97499.10;433228;1269;112480;-40
2022/09/17 02:44:07;;;;;;;6.40;3.60;;;;;;;9.27;79.11;97504.09;432869;1270;107702;-41
2022/09/17 02:54:18;;;;;;;6.20;4.00;;;;;;;9.14;78.86;97508.20;432613;1268;99273;-40
2022/09/17 03:14:34;;;;;;;8.80;4.40;;;;;;;8.94;79.40;97494.80;433098;1270;99231;-40
2022/09/17 03:24:42;;;;;;;7.60;4.20;;;;;;;8.92;79.35;97492.98;433206;1270;112132;-40
2022/09/17 03:34:49;;;;;;;5.40;4.50;;;;;;;8.96;79.35;97488.91;433002;1269;108376;-42
2022/09/17 03:55:03;;;;;;;8.60;4.20;;;;;;;8.82;79.13;97488.13;432189;1270;108930;-41
2022/09/17 04:05:11;;;;;;;7.20;5.90;;;;;;;8.61;79.37;97476.18;432854;1269;98618;-41
2022/09/17 04:15:18;;;;;;;7.10;5.80;;;;;;;8.25;79.15;97474.32;433256;1270;112421;-41
2022/09/17 04:25:26;;;;;;;9.40;5.90;;;;;;;7.87;79.08;97475.60;433069;1268;109088;-41
2022/09/17 04:35:32;;;;;;;9.00;5.30;;;;;;;7.70;79.55;97467.81;433044;1269;98621;-41
2022/09/17 04:45:39;;;;;;;5.80;4.50;;;;;;;7.91;80.10;97457.60;432191;1270;108850;-41
2022/09/17 04:55:47;;;;;;;9.80;4.80;;;;;;;8.30;80.29;97463.52;433454;1270;99232;-41
2022/09/17 05:05:54;;;;;;;4.40;3.80;;;;;;;8.69;80.13;97476.86;433500;1270;112306;-41
2022/09/17 05:16:02;;;;;;;6.90;4.40;;;;;;;8.90;80.17;97476.26;433314;1270;108976;-41
2022/09/17 05:26:09;;;;;;;5.30;4.10;;;;;;;10.05;80.77;97467.60;432952;1269;99233;-41
2022/09/17 05:36:17;;;;;;;5.60;4.50;;;;;;;10.63;79.21;97480.50;432678;1270;108800;-41
2022/09/17 05:46:24;;;;;;;6.20;4.90;;;;;;;10.38;78.98;97481.27;433072;1270;98005;-42
2022/09/17 05:56:32;;;;;;;17.00;7.20;;;;;;;10.27;78.85;97492.31;433345;1270;112633;-41
2022/09/17 06:06:40;;;;;;;9.30;5.60;;;;;;;10.24;78.71;97493.98;432628;1270;108830;-41
2022/09/17 06:16:47;;;;;;;5.40;4.70;;;;;;;10.87;78.83;97477.26;431629;1270;1809877;-41
2022/09/17 06:26:55;;;;;;;8.00;5.30;;;;;;;11.14;78.32;97469.20;432973;1269;108921;-41
2022/09/17 06:37:02;;;;;;;8.10;4.20;;;;;;;11.19;78.08;97480.06;433157;1269;98533;-41
2022/09/17 06:47:10;;;;;;;4.90;3.30;;;;;;;12.05;78.73;97461.44;432167;1270;112446;-42
2022/09/17 06:57:17;;;;;;;3.40;3.10;;;;;;;13.06;77.12;97474.33;432439;1270;109119;-41
2022/09/17 07:07:24;;;;;;;4.00;2.80;;;;;;;12.27;76.60;97499.08;433027;1270;98498;-41
2022/09/17 07:17:31;;;;;;;4.30;2.50;;;;;;;11.70;76.80;97498.36;433197;1269;108902;-41
2022/09/17 07:27:38;;;;;;;3.90;2.50;;;;;;;11.68;77.10;97487.44;433200;1270;98860;-40
2022/09/17 07:47:53;;;;;;;4.20;2.90;;;;;;;13.24;77.41;97489.14;432504;1270;108855;-41
2022/09/17 07:58:00;;;;;;;3.20;2.80;;;;;;;14.02;76.87;97514.54;433275;1270;98707;-41
2022/09/17 08:08:08;;;;;;;3.20;2.90;;;;;;;13.99;75.92;97515.15;433293;1271;108884;-43
2022/09/17 08:18:16;;;;;;;5.50;3.20;;;;;;;13.64;75.53;97514.24;433158;1270;98036;-41
2022/09/17 08:38:33;;;;;;;6.30;3.00;;;;;;;14.01;74.46;97510.94;432406;1270;108697;-40
2022/09/17 08:48:49;;;;;;;5.30;3.70;;;;;;;14.10;74.53;97494.86;433281;1270;98017;-40
2022/09/17 08:58:59;;;;;;;5.90;3.80;;;;;;;14.41;73.97;97488.23;433105;1271;109639;-41
2022/09/17 09:09:13;;;;;;;5.00;3.40;;;;;;;14.05;73.43;97496.77;433425;1270;99498;-40
2022/09/17 09:19:20;;;;;;;6.70;4.30;;;;;;;14.00;73.43;97481.23;433113;1271;112465;-40
2022/09/17 09:29:25;;;;;;;5.10;3.00;;;;;;;13.59;73.54;97523.96;432605;1270;108929;-40
2022/09/17 09:50:06;;;;;;;5.00;3.50;;;;;;;13.53;73.86;97537.31;433270;1270;108704;-40
2022/09/17 10:00:28;;;;;;;3.40;3.10;;;;;;;13.24;73.79;97546.77;432855;1271;99265;-41
2022/09/17 10:10:36;;;;;;;3.70;2.00;;;;;;;13.47;73.96;97550.52;432542;1270;111151;-41
2022/09/17 10:20:56;;;;;;;5.60;3.00;;;;;;;14.09;73.76;97548.02;433026;1270;108880;-41
2022/09/17 10:31:09;;;;;;;7.70;2.30;;;;;;;14.42;73.55;97544.32;433074;1271;98007;-41
2022/09/17 10:41:20;;;;;;;3.50;2.20;;;;;;;14.39;73.02;97531.40;433114;1269;108962;-40
2022/09/17 10:51:27;;;;;;;5.80;3.50;;;;;;;14.11;72.73;97541.11;432647;1271;98847;-41
2022/09/17 11:01:34;;;;;;;4.80;2.90;;;;;;;14.01;72.89;97553.30;432402;1270;112635;-40
2022/09/17 11:11:41;;;;;;;3.30;3.00;;;;;;;13.99;73.08;97562.41;432696;1271;108889;-40
2022/09/17 11:21:49;;;;;;;8.80;2.80;;;;;;;14.06;73.28;97556.63;432535;1271;98042;-40
2022/09/17 11:32:02;;;;;;;4.10;3.40;;;;;;;13.95;73.20;97546.71;432871;1271;108998;-40
2022/09/17 11:42:10;;;;;;;3.90;2.20;;;;;;;13.89;73.24;97561.58;432162;1271;98825;-41
2022/09/17 11:52:24;;;;;;;8.60;3.80;;;;;;;13.92;73.38;97564.58;432458;1271;111923;-41
2022/09/17 12:02:34;;;;;;;8.80;4.90;;;;;;;14.05;73.31;97565.02;432759;1271;108713;-40
2022/09/17 12:12:48;;;;;;;3.70;3.40;;;;;;;14.06;72.95;97557.37;432622;1271;99376;-40
2022/09/17 12:22:57;;;;;;;8.10;3.80;;;;;;;14.08;73.23;97551.77;432493;1270;112400;-40
2022/09/17 12:33:22;;;;;;;4.00;2.50;;;;;;;13.99;73.14;97546.04;432456;1270;108919;-40
2022/09/17 12:43:43;;;;;;;5.10;2.90;;;;;;;13.94;73.36;97536.61;432525;1270;98837;-40
2022/09/17 12:53:58;;;;;;;5.40;3.40;;;;;;;14.04;73.58;97530.96;432373;1270;108798;-40
2022/09/17 13:04:14;;;;;;;5.10;4.20;;;;;;;14.12;73.69;97513.88;433076;1269;99267;-41
2022/09/17 13:14:24;;;;;;;5.50;3.90;;;;;;;14.24;73.73;97501.17;432843;1270;112448;-41
2022/09/17 13:24:33;;;;;;;5.50;4.10;;;;;;;14.41;73.62;97494.36;432926;1270;108941;-41
2022/09/17 13:34:40;;;;;;;6.10;4.00;;;;;;;14.71;73.59;97476.55;432633;1270;99342;-41
2022/09/17 13:44:52;;;;;;;7.50;4.10;;;;;;;14.78;73.41;97474.17;432599;1270;109036;-40
2022/09/17 13:54:59;;;;;;;4.40;3.70;;;;;;;15.00;73.40;97471.56;432673;1270;98991;-40
2022/09/17 14:05:34;;;;;;;7.20;4.00;;;;;;;15.07;73.14;97478.64;433003;1270;112481;-41
2022/09/17 14:16:23;;;;;;;6.80;4.00;;;;;;;15.14;72.82;97488.70;432109;1270;109382;-41
2022/09/17 14:27:03;;;;;;;4.40;3.20;;;;;;;14.94;72.80;97473.89;432559;1270;98005;-42
2022/09/17 14:37:08;;;;;;;11.20;4.90;;;;;;;14.91;72.83;97457.90;432311;1270;109004;-40
2022/09/17 14:47:17;;;;;;;4.70;4.30;;;;;;;14.71;72.78;97435.10;432478;1270;98864;-41
2022/09/17 14:57:21;;;;;;;;;;;;;;;14.40;72.75;97457.24;432500;1270;113018;-41
2022/09/17 15:07:29;;;;;;;8.80;6.30;;;;;;;14.04;73.04;97467.64;432509;1270;108940;-41
2022/09/17 15:17:36;;;;;;;6.00;4.10;;;;;;;13.84;73.20;97475.52;432942;1269;98933;-41
2022/09/17 15:27:46;;;;;;;5.80;3.90;;;;;;;13.80;73.31;97466.15;433057;1269;108767;-43
2022/09/17 15:37:55;;;;;;;5.30;4.20;;;;;;;13.73;73.54;97447.14;433101;1270;98246;-41
2022/09/17 15:48:38;;;;;;;11.90;8.30;;;;;;;13.61;74.08;97455.83;432492;1270;113052;-41
2022/09/17 15:58:51;;;;;;;10.00;6.00;;;;;;;13.54;74.36;97469.08;432493;1270;108919;-41
2022/09/17 16:19:07;;;;;;;11.00;7.00;;;;;;;13.52;74.60;97473.59;432413;1270;108784;-41
2022/09/17 16:29:14;;;;;;;11.00;8.00;;;;;;;13.42;74.86;97475.77;432687;1270;98042;-41
2022/09/17 16:39:21;;;;;;;9.30;8.00;;;;;;;13.18;75.08;97476.02;433100;1270;112435;-41
2022/09/17 16:49:28;;;;;;;11.10;8.70;;;;;;;13.05;75.25;97475.29;433296;1270;108776;-41
2022/09/17 16:59:36;;;;;;;11.90;8.30;;;;;;;12.95;75.36;97477.13;433119;1270;99337;-41
2022/09/17 17:09:43;;;;;;;15.70;9.00;;;;;;;12.78;75.48;97469.93;433131;1270;109100;-41
2022/09/17 17:19:51;;;;;;;14.70;9.20;;;;;;;12.68;75.74;97482.70;432850;1270;99232;-41
2022/09/17 17:40:07;;;;;;;6.80;4.70;;;;;;;12.18;75.64;97493.43;433383;1270;109314;-41
2022/09/17 18:00:22;;;;;;;4.10;3.10;;;;;;;11.78;75.88;97488.20;433371;1269;108726;-41
2022/09/17 18:10:42;;;;;;;3.80;3.30;;;;;;;11.67;76.27;97477.17;419795;1308;635800;-42
2022/09/17 18:30:57;;;;;;;3.80;3.20;;;;;;;11.08;76.76;97467.88;431445;1276;108410;-39
2022/09/17 18:41:03;;;;;;;7.20;3.80;;;;;;;10.94;77.05;97469.15;431776;1276;108992;-40
2022/09/17 18:51:11;;;;;;;8.80;3.40;;;;;;;10.82;77.36;97472.00;431383;1276;94558;-40
2022/09/17 19:01:20;;;;;;;6.30;2.80;;;;;;;10.77;77.58;97469.52;431340;1276;108237;-40
2022/09/17 19:11:29;;;;;;;3.90;2.00;;;;;;;10.69;77.63;97479.67;431592;1276;108953;-41
2022/09/17 19:21:36;;;;;;;2.90;2.20;;;;;;;10.67;78.13;97484.97;431026;1276;108819;-39
2022/09/17 19:31:43;;;;;;;5.10;3.00;;;;;;;10.68;78.33;97480.53;432271;1274;95097;-40
2022/09/17 19:41:51;;;;;;;8.00;3.90;;;;;;;10.59;78.63;97480.23;432641;1273;108566;-40
2022/09/17 19:51:58;;;;;;;6.80;4.20;;;;;;;10.55;78.84;97479.73;432407;1273;108992;-40
2022/09/17 20:02:06;;;;;;;7.50;3.90;;;;;;;10.57;78.89;97483.64;432447;1272;96597;-40
2022/09/17 20:12:13;;;;;;;6.60;3.50;;;;;;;10.67;79.19;97473.54;432748;1272;109756;-39
2022/09/17 20:22:21;;;;;;;4.20;3.80;;;;;;;10.75;79.27;97477.02;432405;1273;108784;-41
2022/09/17 20:32:29;;;;;;;4.10;2.80;;;;;;;10.76;79.45;97479.88;432248;1273;97245;-41
2022/09/17 20:42:36;;;;;;;6.40;3.50;;;;;;;10.68;79.52;97485.19;432340;1273;109935;-41
2022/09/17 20:52:44;;;;;;;5.80;3.30;;;;;;;10.56;79.72;97482.52;432529;1273;108016;-40
2022/09/17 21:02:53;;;;;;;7.20;3.80;;;;;;;10.49;79.68;97484.45;432641;1273;109045;-41
2022/09/17 21:12:59;;;;;;;;;;;;;;;10.49;80.02;97483.92;432720;1273;96058;-39
2022/09/17 21:23:07;;;;;;;6.50;3.70;;;;;;;10.54;80.37;97483.84;432585;1274;108797;-40
2022/09/17 21:33:20;;;;;;;11.70;4.10;;;;;;;10.63;80.40;97478.65;432583;1273;95596;-40
2022/09/17 21:43:29;;;;;;;7.10;3.80;;;;;;;10.65;80.52;97475.77;432702;1273;109661;-40
2022/09/17 21:53:37;;;;;;;5.10;3.50;;;;;;;10.66;80.73;97476.71;432466;1274;108828;-40
2022/09/17 22:03:46;;;;;;;6.10;3.30;;;;;;;10.64;80.78;97469.56;432142;1272;96018;-41
2022/09/17 22:24:04;;;;;;;8.00;2.40;;;;;;;10.55;81.02;97465.29;432489;1273;96124;-39
2022/09/17 22:34:13;;;;;;;4.60;2.00;;;;;;;10.50;80.94;97456.08;432417;1274;108742;-40
2022/09/17 22:44:20;;;;;;;7.00;2.40;;;;;;;10.43;81.09;97449.92;432216;1273;108690;-39
2022/09/17 22:54:28;;;;;;;8.00;2.50;;;;;;;10.41;81.09;97446.67;432708;1273;96174;-40
2022/09/17 23:04:35;;;;;;;7.80;2.30;;;;;;;10.39;81.38;97443.70;432245;1274;108503;-39
2022/09/17 23:14:42;;;;;;;7.50;2.60;;;;;;;10.25;81.34;97441.73;432538;1272;96165;-39
2022/09/17 23:24:49;;;;;;;4.80;2.20;;;;;;;10.13;81.47;97442.27;432270;1273;96136;-42
2022/09/17 23:34:56;;;;;;;8.50;2.30;;;;;;;10.09;81.46;97436.43;432334;1273;109752;-41
2022/09/17 23:45:04;;;;;;;10.20;2.80;;;;;;;10.08;81.48;97440.96;431909;1273;108711;-41
2022/09/17 23:55:11;;;;;;;7.90;1.70;;;;;;;10.14;81.51;97441.79;432278;1273;95785;-41
